Westwood Lakes, Florida
Current Conditions -  °F | °C
As of 11:53 PM on Sunday 19 Oct 2014 (Local Time) from KTMB Reporting Station
Clear Clear  
Wind Chill: 73°   Ceiling: Unl
Heat Index: 73°   Visibility: 10mi
Dew Point: 65°   Wind: 3mph
Humidity: 76%   Direction: 50°NE
Pressure: 30.02"   Gusts: NA
Location:  25.72°N, 80.37°W
Report Text: KTMB 200353Z AUTO 05003KT 10SM CLR 23/18 A3002 RMK AO2 SLP164 T02280183
Loading
Personal Weather Stations






























Interactive Weather Map
Tropical Storm Tracking
New forecast layout! Learn more

10-Day Weather Forecast

Advertisements
Track Severe Weather on mobile